Here is the Quick Look data you requested

The Data originates at the National Weather Service, and is made available here by the UAlbany Department of Atmospheric and Environmental Sciences

Surface Observations

KCVG 162152Z 31012KT 10SM FEW150 03/M07 A3056 RMK AO2 SLP354 T00281072=
KCVG 162252Z 31011KT 10SM FEW150 01/M08 A3059 RMK AO2 SLP363 T00111078=
KCVG 162352Z 30008KT 10SM FEW250 00/M07 A3061 RMK AO2 SLP371 T00001072 10044
 20000 53023=
KCVG 170052Z 34007KT 10SM SCT250 M01/M08 A3063 RMK AO2 SLP379 T10111078=
KCVG 170152Z 34010KT 10SM SCT250 M02/M08 A3066 RMK AO2 SLP388 T10171078=
KCVG 170252Z 34011KT 10SM SCT250 M02/M08 A3067 RMK AO2 SLP394 T10221078 51020=
KCVG 170352Z 35012KT 9SM FEW021 FEW250 M03/M08 A3069 RMK AO2 SLP400 T10331078=
KCVG 170452Z 36008KT 8SM FEW020 FEW250 M04/M08 A3069 RMK AO2 SLP401 T10391083
 400781039=
KCVG 170545Z 36008KT 10SM BKN020 BKN250 M04/M08 A3070 RMK AO2 T10391083=
KCVG 170552Z 01009KT 10SM BKN020 BKN250 M04/M08 A3070 RMK AO2 SLP404 T10391083
 10000 21044 51009=
KCVG 170626Z 02012KT 10SM SCT019 OVC250 M04/M09 A3070 RMK AO2 SCT V FEW
 T10441089=
KCVG 170652Z 03008KT 10SM FEW019 OVC250 M04/M09 A3070 RMK AO2 SLP404 T10441089=
KCVG 170752Z 02011KT 10SM FEW021 OVC250 M05/M09 A3073 RMK AO2 SLP415 T10501094=
KCVG 170852Z 04011KT 10SM FEW021 OVC230 M05/M09 A3073 RMK AO2 SLP415 FEW V SCT
 T10501094 50010=
KCVG 170952Z 05014KT 10SM FEW020 OVC250 M05/M10 A3073 RMK AO2 SLP413 T10501100=
KCVG 171052Z 06012KT 10SM SCT021 OVC240 M04/M10 A3073 RMK AO2 SLP415 SCT V BKN
 T10441100=
KCVG 171104Z 05010KT 10SM BKN021 OVC240 M04/M10 A3074 RMK AO2 T10441100=
KCVG 171152Z 04010KT 10SM OVC021 M04/M10 A3075 RMK AO2 SLP422 T10441100 11033
 21050 53006=
KCVG 171252Z 07010KT 10SM SCT020 BKN200 M04/M09 A3075 RMK AO2 SLP421 T10441094=
KCVG 171352Z 08011KT 10SM FEW020 BKN130 OVC200 M04/M09 A3075 RMK AO2 SLP422
 T10391094=
KCVG 171452Z 09011KT 10SM FEW020 BKN130 OVC200 M03/M09 A3074 RMK AO2 SLP417
 T10331089 58004=
KCVG 171552Z 09011KT 10SM SCT130 BKN150 M02/M09 A3073 RMK AO2 SLP416 T10221089=
KCVG 171652Z 09010KT 10SM SCT130 BKN150 M02/M09 A3070 RMK AO2 SLP404 T10171089=
KCVG 171752Z 10011KT 10SM SCT130 OVC150 M01/M09 A3065 RMK AO2 SLP389 BINOVC E
 T10111094 11011 21044 58027=
KCVG 171852Z 12012KT 10SM SCT130 OVC150 00/M09 A3062 RMK AO2 SLP379 T00001089=
KCVG 171952Z 09010KT 10SM OVC140 00/M09 A3059 RMK AO2 SLP369 VIRGA SW T00001089=
KCVG 172052Z 11010KT 10SM OVC120 00/M09 A3058 RMK AO2 SLP364 VIRGA ALQDS
 T00001094 56024=
KCVG 172152Z 10013KT 10SM OVC120 01/M09 A3053 RMK AO2 SLP347 VIRGA S-SW
 T00061089=